Time;durP1;ratioP1;P1;durP2;ratioP2;P2;SDS_P1;SDS_P2;PMS_P1;PMS_P2;Temp;Humidity;BMP_temperature;BMP_pressure;BME280_temperature;BME280_humidity;BME280_pressure;Samples;Min_cycle;Max_cycle;Signal;HPM_P1;HPM_P2
2022/12/23 00:01:25;;;;;;;7.60;1.95;;;;;;;;;;5037428;28;20027;-74
2022/12/23 00:03:52;;;;;;;5.85;2.58;;;;;;;;;;5027271;28;20018;-75
2022/12/23 00:06:19;;;;;;;5.75;1.40;;;;;;;;;;5026818;28;20141;-74
2022/12/23 00:08:46;;;;;;;4.82;2.20;;;;;;;;;;5025699;28;20533;-75
2022/12/23 00:11:14;;;;;;;6.57;2.17;;;;;;;;;;5027441;28;20029;-78
2022/12/23 00:16:26;;;;;;;2.67;1.50;;;;;;;;;;5035533;28;20127;-75
2022/12/23 00:18:53;;;;;;;6.47;1.95;;;;;;;;;;5026836;28;20021;-74
2022/12/23 00:21:19;;;;;;;6.75;1.90;;;;;;;;;;5025241;28;20057;-79
2022/12/23 00:23:47;;;;;;;4.72;1.77;;;;;;;;;;5026435;28;20105;-77
2022/12/23 00:26:14;;;;;;;5.68;2.10;;;;;;;;;;5026899;28;20045;-74
2022/12/23 00:28:40;;;;;;;5.22;1.80;;;;;;;;;;5006798;28;20117;-76
2022/12/23 00:31:07;;;;;;;5.80;1.70;;;;;;;;;;5026685;28;20029;-75
2022/12/23 00:33:38;;;;;;;8.40;2.30;;;;;;;;;;5026780;28;20543;-75
2022/12/23 00:36:16;;;;;;;5.25;2.13;;;;;;;;;;5013979;28;20072;-81
2022/12/23 00:44:12;;;;;;;5.97;2.13;;;;;;;;;;5036381;28;20750;-75
2022/12/23 00:46:39;;;;;;;7.07;1.90;;;;;;;;;;5017284;28;20531;-74
2022/12/23 00:51:51;;;;;;;5.20;2.25;;;;;;;;;;5026563;28;20048;-74
2022/12/23 00:54:17;;;;;;;7.15;2.10;;;;;;;;;;5024676;28;20120;-74
2022/12/23 00:56:43;;;;;;;4.82;1.80;;;;;;;;;;5025846;28;20497;-74
2022/12/23 00:59:09;;;;;;;5.63;1.88;;;;;;;;;;5026335;28;20029;-74
2022/12/23 01:07:05;;;;;;;10.45;2.28;;;;;;;;;;5026889;28;20040;-74
2022/12/23 01:09:31;;;;;;;6.30;3.08;;;;;;;;;;5024994;28;20096;-75
2022/12/23 01:11:58;;;;;;;10.80;2.47;;;;;;;;;;5024505;28;20074;-74
2022/12/23 01:14:24;;;;;;;8.27;2.10;;;;;;;;;;5025909;28;20064;-74
2022/12/23 01:16:50;;;;;;;9.68;2.30;;;;;;;;;;5033470;28;20077;-74
2022/12/23 01:19:16;;;;;;;6.85;2.00;;;;;;;;;;5023595;28;20022;-74
2022/12/23 01:21:42;;;;;;;4.28;2.28;;;;;;;;;;5025524;28;20468;-74
2022/12/23 01:24:09;;;;;;;5.20;2.10;;;;;;;;;;5033872;28;20463;-75
2022/12/23 01:26:35;;;;;;;6.65;2.03;;;;;;;;;;5015704;28;20120;-75
2022/12/23 01:29:01;;;;;;;7.47;2.10;;;;;;;;;;5024272;28;20381;-74
2022/12/23 01:31:28;;;;;;;6.25;2.22;;;;;;;;;;5025701;28;20033;-74
2022/12/23 01:33:54;;;;;;;6.10;2.20;;;;;;;;;;5024856;28;20022;-74
2022/12/23 01:36:21;;;;;;;8.23;3.10;;;;;;;;;;5025594;28;20056;-74
2022/12/23 01:38:47;;;;;;;8.57;2.17;;;;;;;;;;5024435;28;20025;-74
2022/12/23 01:44:41;;;;;;;7.50;1.92;;;;;;;;;;5029243;28;20059;-74
2022/12/23 01:47:09;;;;;;;7.15;1.77;;;;;;;;;;4976805;28;20383;-74
2022/12/23 01:49:35;;;;;;;8.63;2.22;;;;;;;;;;5035109;28;20021;-74
2022/12/23 01:52:01;;;;;;;6.82;1.95;;;;;;;;;;5029430;28;20017;-81
2022/12/23 01:54:27;;;;;;;8.52;2.03;;;;;;;;;;5029921;28;20035;-75
2022/12/23 01:56:54;;;;;;;6.53;1.90;;;;;;;;;;5025419;28;20044;-74
2022/12/23 02:04:49;;;;;;;5.25;1.85;;;;;;;;;;5028571;28;20064;-80
2022/12/23 02:10:02;;;;;;;9.57;1.98;;;;;;;;;;5025504;28;20056;-74
2022/12/23 02:12:46;;;;;;;8.18;2.13;;;;;;;;;;5024019;28;20025;-76
2022/12/23 02:18:21;;;;;;;9.27;1.95;;;;;;;;;;5024889;28;20040;-78
2022/12/23 02:20:51;;;;;;;9.63;2.00;;;;;;;;;;5018532;28;20028;-74
2022/12/23 02:23:35;;;;;;;4.57;1.35;;;;;;;;;;5024302;28;20026;-79
2022/12/23 02:26:22;;;;;;;7.10;1.50;;;;;;;;;;5015991;28;20060;-76
2022/12/23 02:28:51;;;;;;;5.40;1.52;;;;;;;;;;5025103;28;20056;-76
2022/12/23 02:31:17;;;;;;;5.60;1.75;;;;;;;;;;5025560;28;20032;-74
2022/12/23 02:33:49;;;;;;;3.58;1.45;;;;;;;;;;5005552;28;20026;-74
2022/12/23 02:36:21;;;;;;;10.68;1.83;;;;;;;;;;5028155;28;20025;-79
2022/12/23 02:38:53;;;;;;;8.85;1.75;;;;;;;;;;5006743;28;20037;-80
2022/12/23 02:41:28;;;;;;;6.72;1.67;;;;;;;;;;5024577;28;20541;-73
2022/12/23 02:44:00;;;;;;;6.55;1.38;;;;;;;;;;5024298;28;20036;-75
2022/12/23 02:46:34;;;;;;;8.70;1.60;;;;;;;;;;5024340;28;20405;-82
2022/12/23 02:49:03;;;;;;;5.25;1.35;;;;;;;;;;5022844;28;20044;-79
2022/12/23 02:51:32;;;;;;;7.97;1.98;;;;;;;;;;5024400;28;20045;-79
2022/12/23 02:54:00;;;;;;;7.22;1.58;;;;;;;;;;5023537;28;20035;-83
2022/12/23 02:56:28;;;;;;;4.07;1.45;;;;;;;;;;5024180;28;20040;-74
2022/12/23 02:59:00;;;;;;;6.97;1.63;;;;;;;;;;5032329;28;20029;-74
2022/12/23 03:01:27;;;;;;;7.03;2.00;;;;;;;;;;5039554;28;20035;-74
2022/12/23 03:03:53;;;;;;;10.48;2.05;;;;;;;;;;5023524;28;20025;-74
2022/12/23 03:06:21;;;;;;;4.35;1.35;;;;;;;;;;5035474;28;20037;-74
2022/12/23 03:08:49;;;;;;;7.05;2.05;;;;;;;;;;5023413;28;20040;-74
2022/12/23 03:11:16;;;;;;;5.65;1.75;;;;;;;;;;5034413;28;20025;-74
2022/12/23 03:13:48;;;;;;;10.00;2.08;;;;;;;;;;5018355;28;20021;-74
2022/12/23 03:16:14;;;;;;;7.22;1.95;;;;;;;;;;5023867;28;20071;-74
2022/12/23 03:18:51;;;;;;;7.60;1.65;;;;;;;;;;5022993;28;20058;-74
2022/12/23 03:21:22;;;;;;;8.07;1.75;;;;;;;;;;5014426;28;20579;-74
2022/12/23 03:23:54;;;;;;;5.18;1.60;;;;;;;;;;5025860;28;20029;-74
2022/12/23 03:26:20;;;;;;;;;;;;;;;;;;5007141;28;21639;-74
2022/12/23 03:28:53;;;;;;;5.82;1.50;;;;;;;;;;5023954;28;19949;-74
2022/12/23 03:31:24;;;;;;;6.30;1.33;;;;;;;;;;5006870;28;20101;-74
2022/12/23 03:33:54;;;;;;;4.13;1.50;;;;;;;;;;5004755;28;20052;-74
2022/12/23 03:36:24;;;;;;;6.90;1.20;;;;;;;;;;5009868;28;20586;-74
2022/12/23 03:38:50;;;;;;;4.28;1.20;;;;;;;;;;5027702;28;20017;-74
2022/12/23 03:41:18;;;;;;;5.15;1.48;;;;;;;;;;5027923;28;20026;-74
2022/12/23 03:44:03;;;;;;;7.13;1.58;;;;;;;;;;5012592;28;20030;-74
2022/12/23 03:46:32;;;;;;;4.78;1.30;;;;;;;;;;5024332;28;20663;-74
2022/12/23 03:49:01;;;;;;;6.18;2.22;;;;;;;;;;5024727;28;20556;-75
2022/12/23 03:51:33;;;;;;;8.10;1.58;;;;;;;;;;5021255;28;20115;-74
2022/12/23 03:54:02;;;;;;;6.50;1.50;;;;;;;;;;5026003;28;20105;-74
2022/12/23 03:56:34;;;;;;;4.60;1.77;;;;;;;;;;5026507;28;20052;-81
2022/12/23 03:59:03;;;;;;;6.20;1.80;;;;;;;;;;5024349;28;20022;-77
2022/12/23 04:01:48;;;;;;;10.45;2.20;;;;;;;;;;5025683;28;20045;-81
2022/12/23 04:04:14;;;;;;;9.05;2.10;;;;;;;;;;5009645;28;20079;-80
2022/12/23 04:07:03;;;;;;;14.15;2.67;;;;;;;;;;5015971;28;20014;-81
2022/12/23 04:09:29;;;;;;;5.43;1.83;;;;;;;;;;5020877;28;20087;-74
2022/12/23 04:11:57;;;;;;;9.00;1.85;;;;;;;;;;5023596;28;20025;-74
2022/12/23 04:14:23;;;;;;;9.38;2.35;;;;;;;;;;5011586;28;20512;-75
2022/12/23 04:16:52;;;;;;;10.75;1.80;;;;;;;;;;5011621;28;20048;-74
2022/12/23 04:19:19;;;;;;;9.32;2.78;;;;;;;;;;5010061;28;20033;-81
2022/12/23 04:21:45;;;;;;;8.95;2.55;;;;;;;;;;5032261;28;20029;-83
2022/12/23 04:24:11;;;;;;;6.85;2.47;;;;;;;;;;5014073;28;20024;-81
2022/12/23 04:26:37;;;;;;;8.15;1.88;;;;;;;;;;5028193;28;20848;-82
2022/12/23 04:29:04;;;;;;;8.35;2.30;;;;;;;;;;5027804;28;20448;-79
2022/12/23 04:31:30;;;;;;;9.68;2.63;;;;;;;;;;5028185;28;20061;-74
2022/12/23 04:33:56;;;;;;;15.70;2.17;;;;;;;;;;5014260;28;20537;-83
2022/12/23 04:36:22;;;;;;;11.43;2.60;;;;;;;;;;5021241;28;20271;-82
2022/12/23 04:38:49;;;;;;;8.70;1.85;;;;;;;;;;5031487;28;20022;-75
2022/12/23 04:41:15;;;;;;;6.75;1.77;;;;;;;;;;5025826;28;20051;-81
2022/12/23 04:43:41;;;;;;;10.40;2.40;;;;;;;;;;5015951;28;20028;-79
2022/12/23 04:46:07;;;;;;;7.78;3.10;;;;;;;;;;5023341;28;20039;-75
2022/12/23 04:48:33;;;;;;;9.73;2.60;;;;;;;;;;5034788;28;20043;-79
2022/12/23 04:51:01;;;;;;;12.23;2.22;;;;;;;;;;5026884;28;20044;-74
2022/12/23 04:53:27;;;;;;;8.20;2.17;;;;;;;;;;5024182;28;20021;-76
2022/12/23 04:55:54;;;;;;;9.43;2.15;;;;;;;;;;5030608;28;20009;-74
2022/12/23 04:58:23;;;;;;;7.07;2.72;;;;;;;;;;5027924;28;20036;-74
2022/12/23 05:00:59;;;;;;;5.43;2.00;;;;;;;;;;5039256;28;20021;-74
2022/12/23 05:03:26;;;;;;;9.65;2.13;;;;;;;;;;5029083;28;20032;-74
2022/12/23 05:05:52;;;;;;;6.55;2.25;;;;;;;;;;5024345;28;20026;-74
2022/12/23 05:08:18;;;;;;;9.73;2.70;;;;;;;;;;5030350;28;20028;-74
2022/12/23 05:10:44;;;;;;;6.72;1.83;;;;;;;;;;5028759;28;20025;-74
2022/12/23 05:13:11;;;;;;;9.13;2.25;;;;;;;;;;5030392;28;20531;-74
2022/12/23 05:15:37;;;;;;;7.03;1.92;;;;;;;;;;5028679;28;20028;-74
2022/12/23 05:18:03;;;;;;;8.00;1.98;;;;;;;;;;5038746;28;20082;-74
2022/12/23 05:20:29;;;;;;;10.48;2.10;;;;;;;;;;5031333;28;20032;-81
2022/12/23 05:22:55;;;;;;;10.25;2.30;;;;;;;;;;5030339;28;20016;-74
2022/12/23 05:25:21;;;;;;;7.93;2.33;;;;;;;;;;5023115;28;20021;-74
2022/12/23 05:27:47;;;;;;;6.95;2.58;;;;;;;;;;5028510;28;20132;-74
2022/12/23 05:30:14;;;;;;;8.73;2.20;;;;;;;;;;5022849;28;20029;-74
2022/12/23 05:32:40;;;;;;;6.85;1.42;;;;;;;;;;5023614;28;20095;-74
2022/12/23 05:35:06;;;;;;;8.70;2.38;;;;;;;;;;5023631;28;20053;-74
2022/12/23 05:37:32;;;;;;;13.73;2.83;;;;;;;;;;5022147;28;20091;-74
2022/12/23 05:39:59;;;;;;;11.65;2.03;;;;;;;;;;5021074;28;20026;-74
2022/12/23 05:42:25;;;;;;;22.23;3.72;;;;;;;;;;5030261;28;20028;-74
2022/12/23 05:44:51;;;;;;;10.65;2.42;;;;;;;;;;5022761;28;20021;-74
2022/12/23 05:47:17;;;;;;;7.10;1.92;;;;;;;;;;5023094;28;20021;-74
2022/12/23 05:49:43;;;;;;;9.20;2.42;;;;;;;;;;5022762;28;20040;-74
2022/12/23 05:52:09;;;;;;;9.48;2.40;;;;;;;;;;5020616;28;20437;-74
2022/12/23 05:54:35;;;;;;;8.93;2.08;;;;;;;;;;5022848;28;20022;-74
2022/12/23 05:57:02;;;;;;;8.30;2.95;;;;;;;;;;5022109;28;20030;-75
2022/12/23 05:59:28;;;;;;;11.35;2.72;;;;;;;;;;5022414;28;20025;-74
2022/12/23 06:01:54;;;;;;;11.57;2.58;;;;;;;;;;5021866;28;20079;-75
2022/12/23 06:04:20;;;;;;;10.30;2.45;;;;;;;;;;5030374;28;20031;-74
2022/12/23 06:06:46;;;;;;;10.05;2.60;;;;;;;;;;5024502;28;20091;-76
2022/12/23 06:09:12;;;;;;;7.55;2.50;;;;;;;;;;5022800;28;20578;-74
2022/12/23 06:11:38;;;;;;;15.68;2.85;;;;;;;;;;5022426;28;20018;-74
2022/12/23 06:14:06;;;;;;;13.00;3.05;;;;;;;;;;5028079;28;20162;-76
2022/12/23 06:16:32;;;;;;;8.50;2.38;;;;;;;;;;5021980;28;20033;-74
2022/12/23 06:18:58;;;;;;;13.13;2.42;;;;;;;;;;5022472;28;20025;-74
2022/12/23 06:21:24;;;;;;;7.78;2.00;;;;;;;;;;5021223;28;20021;-80
2022/12/23 06:23:51;;;;;;;15.25;3.20;;;;;;;;;;5020823;28;20020;-79
2022/12/23 06:26:17;;;;;;;14.07;2.95;;;;;;;;;;5021141;28;20037;-74
2022/12/23 06:28:43;;;;;;;11.32;2.80;;;;;;;;;;5022889;28;20025;-75
2022/12/23 06:31:09;;;;;;;16.67;2.53;;;;;;;;;;5021411;28;20017;-78
2022/12/23 06:33:35;;;;;;;10.90;2.90;;;;;;;;;;5022127;28;20029;-74
2022/12/23 06:36:02;;;;;;;8.65;2.20;;;;;;;;;;5021930;28;20018;-78
2022/12/23 06:38:28;;;;;;;7.15;2.22;;;;;;;;;;5020440;28;20501;-78
2022/12/23 06:40:54;;;;;;;10.18;3.10;;;;;;;;;;5021099;28;20868;-75
2022/12/23 06:43:20;;;;;;;7.65;2.30;;;;;;;;;;5011070;28;20020;-74
2022/12/23 06:45:47;;;;;;;8.82;2.70;;;;;;;;;;5020806;28;20105;-74
2022/12/23 06:48:13;;;;;;;9.85;2.72;;;;;;;;;;5019512;28;20013;-74
2022/12/23 06:50:39;;;;;;;9.35;2.88;;;;;;;;;;5029704;28;20057;-74
2022/12/23 06:53:06;;;;;;;8.75;2.63;;;;;;;;;;5020444;28;20021;-75
2022/12/23 06:55:32;;;;;;;14.57;2.97;;;;;;;;;;5020786;28;20108;-75
2022/12/23 06:57:58;;;;;;;9.10;1.98;;;;;;;;;;5029349;28;20031;-75
2022/12/23 07:00:24;;;;;;;12.68;2.35;;;;;;;;;;5012105;28;20094;-76
2022/12/23 07:02:52;;;;;;;12.65;2.28;;;;;;;;;;5015408;28;20029;-79
2022/12/23 07:05:18;;;;;;;9.82;2.17;;;;;;;;;;5013734;28;20085;-75
2022/12/23 07:07:44;;;;;;;9.52;3.47;;;;;;;;;;5029822;28;20413;-74
2022/12/23 07:10:11;;;;;;;10.77;2.42;;;;;;;;;;5021067;28;20018;-84
2022/12/23 07:12:37;;;;;;;7.30;1.90;;;;;;;;;;5037158;28;20061;-77
2022/12/23 07:15:04;;;;;;;10.07;2.65;;;;;;;;;;5031576;28;20022;-75
2022/12/23 07:17:30;;;;;;;9.60;2.42;;;;;;;;;;5028221;28;20048;-80
2022/12/23 07:19:56;;;;;;;13.45;2.72;;;;;;;;;;5028112;28;20029;-75
2022/12/23 07:22:22;;;;;;;11.27;2.25;;;;;;;;;;5028673;28;20525;-81
2022/12/23 07:24:48;;;;;;;7.60;2.22;;;;;;;;;;5035701;28;20466;-76
2022/12/23 07:27:15;;;;;;;6.50;2.20;;;;;;;;;;5028710;28;20045;-75
2022/12/23 07:29:41;;;;;;;12.55;2.88;;;;;;;;;;5028158;28;20186;-75
2022/12/23 07:32:07;;;;;;;10.52;2.78;;;;;;;;;;5024317;28;20053;-76
2022/12/23 07:34:33;;;;;;;15.43;2.42;;;;;;;;;;5020137;28;20025;-74
2022/12/23 07:37:00;;;;;;;11.07;2.75;;;;;;;;;;5024842;28;20033;-74
2022/12/23 07:39:26;;;;;;;9.30;2.92;;;;;;;;;;5028186;28;20377;-76
2022/12/23 07:41:52;;;;;;;6.95;1.80;;;;;;;;;;5034229;28;20373;-75
2022/12/23 07:44:18;;;;;;;11.50;2.67;;;;;;;;;;5027894;28;20107;-75
2022/12/23 07:46:44;;;;;;;9.93;2.80;;;;;;;;;;5026354;28;20033;-83
2022/12/23 07:49:10;;;;;;;12.35;2.75;;;;;;;;;;5027601;28;20017;-75
2022/12/23 07:51:37;;;;;;;11.77;2.72;;;;;;;;;;5028237;28;20028;-82
2022/12/23 07:54:03;;;;;;;12.38;3.17;;;;;;;;;;5028401;28;20850;-74
2022/12/23 07:56:29;;;;;;;11.80;3.03;;;;;;;;;;5036274;28;20477;-78
2022/12/23 07:58:55;;;;;;;14.38;2.97;;;;;;;;;;5039257;28;20017;-75
2022/12/23 08:01:21;;;;;;;14.63;2.55;;;;;;;;;;5031796;28;20041;-75
2022/12/23 08:03:48;;;;;;;11.90;2.42;;;;;;;;;;5027525;28;20451;-74
2022/12/23 08:06:15;;;;;;;12.57;2.78;;;;;;;;;;5019279;28;20495;-75
2022/12/23 08:08:42;;;;;;;12.32;2.80;;;;;;;;;;5036410;28;20029;-75
2022/12/23 08:11:09;;;;;;;10.48;2.22;;;;;;;;;;5020714;28;20025;-75
2022/12/23 08:13:37;;;;;;;8.23;2.63;;;;;;;;;;5037452;28;20131;-75
2022/12/23 08:16:04;;;;;;;15.25;2.75;;;;;;;;;;5032448;28;20073;-74
2022/12/23 08:18:32;;;;;;;11.25;2.72;;;;;;;;;;5024212;28;20032;-74
2022/12/23 08:20:58;;;;;;;10.77;2.30;;;;;;;;;;5019215;28;20017;-76
2022/12/23 08:23:25;;;;;;;14.75;2.60;;;;;;;;;;5024721;28;20025;-74
2022/12/23 08:25:59;;;;;;;14.57;2.65;;;;;;;;;;5024587;28;20021;-74
2022/12/23 08:28:25;;;;;;;8.00;2.58;;;;;;;;;;5024771;28;20125;-74
2022/12/23 08:30:51;;;;;;;15.38;3.25;;;;;;;;;;5027864;28;20032;-74
2022/12/23 08:33:17;;;;;;;15.25;3.25;;;;;;;;;;5026676;28;20043;-75
2022/12/23 08:35:44;;;;;;;8.57;2.50;;;;;;;;;;5037133;28;20489;-75
2022/12/23 08:38:10;;;;;;;13.65;2.65;;;;;;;;;;5027319;28;20335;-74
2022/12/23 08:40:39;;;;;;;10.90;2.97;;;;;;;;;;4998345;28;20025;-74
2022/12/23 08:43:05;;;;;;;7.45;2.15;;;;;;;;;;5022981;28;20036;-75
2022/12/23 08:45:35;;;;;;;10.80;2.40;;;;;;;;;;5024746;28;20018;-75
2022/12/23 08:48:01;;;;;;;15.40;3.38;;;;;;;;;;5016477;28;20013;-75
2022/12/23 08:50:27;;;;;;;13.13;2.58;;;;;;;;;;5024349;28;20022;-75
2022/12/23 08:52:53;;;;;;;13.38;3.20;;;;;;;;;;5024073;28;20075;-75
2022/12/23 08:55:20;;;;;;;11.90;2.60;;;;;;;;;;5029946;28;20035;-76
2022/12/23 08:57:46;;;;;;;9.48;2.58;;;;;;;;;;5031200;28;20025;-75
2022/12/23 09:00:13;;;;;;;13.85;3.88;;;;;;;;;;5023802;28;20048;-75
2022/12/23 09:02:39;;;;;;;8.85;2.40;;;;;;;;;;5027665;28;20029;-74
2022/12/23 09:05:05;;;;;;;14.18;2.95;;;;;;;;;;5024597;28;20433;-79
2022/12/23 09:07:32;;;;;;;9.82;2.58;;;;;;;;;;5026620;28;20037;-82
2022/12/23 09:09:58;;;;;;;9.88;3.10;;;;;;;;;;5021611;28;20013;-81
2022/12/23 09:12:24;;;;;;;15.95;2.75;;;;;;;;;;5029257;28;20510;-80
2022/12/23 09:14:50;;;;;;;12.25;3.83;;;;;;;;;;5023789;28;20029;-80
2022/12/23 09:17:16;;;;;;;11.18;2.33;;;;;;;;;;5020299;28;20524;-82
2022/12/23 09:19:42;;;;;;;13.75;3.78;;;;;;;;;;5031396;28;20079;-83
2022/12/23 09:22:09;;;;;;;16.42;2.60;;;;;;;;;;5028404;28;20112;-82
2022/12/23 09:24:36;;;;;;;12.50;3.03;;;;;;;;;;5024218;28;20022;-84
2022/12/23 09:27:03;;;;;;;15.68;2.63;;;;;;;;;;5023302;28;20072;-85
2022/12/23 09:29:29;;;;;;;9.88;3.30;;;;;;;;;;5004128;28;20022;-82
2022/12/23 09:31:55;;;;;;;9.82;2.97;;;;;;;;;;5004663;28;20057;-76
2022/12/23 09:34:21;;;;;;;15.68;2.95;;;;;;;;;;5023015;28;20026;-83
2022/12/23 09:36:47;;;;;;;11.52;3.40;;;;;;;;;;5025095;28;20087;-81
2022/12/23 09:39:14;;;;;;;18.73;4.10;;;;;;;;;;5021124;28;20584;-82
2022/12/23 09:41:47;;;;;;;10.45;2.63;;;;;;;;;;5025817;28;20549;-76
2022/12/23 09:44:16;;;;;;;11.32;3.13;;;;;;;;;;5020852;28;20029;-77
2022/12/23 09:46:48;;;;;;;8.55;2.42;;;;;;;;;;5010418;28;20029;-76
2022/12/23 09:49:16;;;;;;;20.75;3.35;;;;;;;;;;5019714;28;20535;-76
2022/12/23 09:51:42;;;;;;;9.45;2.72;;;;;;;;;;5026206;28;20032;-77
2022/12/23 09:54:19;;;;;;;7.05;2.53;;;;;;;;;;5022333;28;20606;-76
2022/12/23 09:57:18;;;;;;;9.52;2.47;;;;;;;;;;5021604;28;20041;-77
2022/12/23 09:59:52;;;;;;;16.02;5.32;;;;;;;;;;4972048;28;20044;-78
2022/12/23 10:02:24;;;;;;;18.95;6.35;;;;;;;;;;5022738;28;20604;-79
2022/12/23 10:05:04;;;;;;;29.95;8.55;;;;;;;;;;5021808;28;20021;-83
2022/12/23 10:07:34;;;;;;;19.20;6.85;;;;;;;;;;5016952;28;20030;-82
2022/12/23 10:10:04;;;;;;;15.55;5.00;;;;;;;;;;5024460;28;20032;-81
2022/12/23 10:12:35;;;;;;;19.90;3.83;;;;;;;;;;5021007;28;20222;-83
2022/12/23 10:15:03;;;;;;;10.90;2.53;;;;;;;;;;5022348;28;20474;-84
2022/12/23 10:17:37;;;;;;;13.93;3.38;;;;;;;;;;5011199;28;20052;-81
2022/12/23 10:20:05;;;;;;;13.55;2.78;;;;;;;;;;5019908;28;20034;-81
2022/12/23 10:22:37;;;;;;;10.57;2.70;;;;;;;;;;5026465;28;20036;-84
2022/12/23 10:25:05;;;;;;;10.57;2.72;;;;;;;;;;5024945;28;20621;-83
2022/12/23 10:27:34;;;;;;;15.18;3.05;;;;;;;;;;5029878;28;20041;-77
2022/12/23 10:30:02;;;;;;;16.30;3.30;;;;;;;;;;5019981;28;20083;-76
2022/12/23 10:32:49;;;;;;;12.60;2.65;;;;;;;;;;5023596;28;20079;-82
2022/12/23 10:35:21;;;;;;;15.68;2.67;;;;;;;;;;5004602;28;20037;-81
2022/12/23 10:37:48;;;;;;;13.32;2.63;;;;;;;;;;5021526;28;20486;-75
2022/12/23 10:40:14;;;;;;;8.55;2.63;;;;;;;;;;5020511;28;20136;-83
2022/12/23 10:42:44;;;;;;;9.15;2.50;;;;;;;;;;5012696;28;20201;-79
2022/12/23 10:45:23;;;;;;;11.85;2.83;;;;;;;;;;5028115;28;20122;-78
2022/12/23 10:47:49;;;;;;;12.38;2.63;;;;;;;;;;5029484;28;20064;-82
2022/12/23 10:50:32;;;;;;;19.23;3.63;;;;;;;;;;5029550;28;20044;-80
2022/12/23 10:53:00;;;;;;;15.38;3.08;;;;;;;;;;5017655;28;20087;-77
2022/12/23 10:55:31;;;;;;;12.27;2.78;;;;;;;;;;5019603;28;20060;-78
2022/12/23 10:58:03;;;;;;;6.40;2.35;;;;;;;;;;5020718;28;20037;-82
2022/12/23 11:00:29;;;;;;;19.33;4.72;;;;;;;;;;5021372;28;20618;-81
2022/12/23 11:03:04;;;;;;;8.63;2.60;;;;;;;;;;5028434;28;20021;-81
2022/12/23 11:05:30;;;;;;;14.07;3.63;;;;;;;;;;5019852;28;20036;-80
2022/12/23 11:07:57;;;;;;;13.43;3.78;;;;;;;;;;5026026;28;20151;-82
2022/12/23 11:10:27;;;;;;;12.15;3.25;;;;;;;;;;5015047;28;20048;-83
2022/12/23 11:12:53;;;;;;;17.73;3.67;;;;;;;;;;5024506;28;20156;-74
2022/12/23 11:15:39;;;;;;;10.05;2.67;;;;;;;;;;5022412;28;20575;-76
2022/12/23 11:18:06;;;;;;;9.55;2.60;;;;;;;;;;5026263;28;20109;-83
2022/12/23 11:20:32;;;;;;;10.85;2.92;;;;;;;;;;5026790;28;20056;-83
2022/12/23 11:23:01;;;;;;;12.30;3.05;;;;;;;;;;5022854;28;20065;-85
2022/12/23 11:25:27;;;;;;;13.32;2.78;;;;;;;;;;5017967;28;20136;-82
2022/12/23 11:28:13;;;;;;;9.57;2.20;;;;;;;;;;5020962;28;20057;-84
2022/12/23 11:30:45;;;;;;;10.93;2.53;;;;;;;;;;5021212;28;20025;-84
2022/12/23 11:33:34;;;;;;;7.57;2.40;;;;;;;;;;5021690;28;20022;-78
2022/12/23 11:36:13;;;;;;;14.23;2.78;;;;;;;;;;5006743;28;20394;-81
2022/12/23 11:38:53;;;;;;;8.65;2.22;;;;;;;;;;5020899;28;20094;-83
2022/12/23 11:41:39;;;;;;;16.67;3.15;;;;;;;;;;5021736;28;20038;-76
2022/12/23 11:44:05;;;;;;;10.07;2.55;;;;;;;;;;5024224;28;20029;-83
2022/12/23 11:46:33;;;;;;;7.97;2.35;;;;;;;;;;5020869;28;20632;-84
2022/12/23 11:49:18;;;;;;;10.40;2.63;;;;;;;;;;5021565;28;20032;-80
2022/12/23 11:51:48;;;;;;;10.60;2.40;;;;;;;;;;5016944;28;20099;-87
2022/12/23 11:54:19;;;;;;;8.15;2.70;;;;;;;;;;5013328;28;20120;-83
2022/12/23 11:56:48;;;;;;;11.50;2.97;;;;;;;;;;5028396;28;20535;-84
2022/12/23 11:59:29;;;;;;;11.15;3.47;;;;;;;;;;5027433;28;20112;-82
2022/12/23 12:01:57;;;;;;;7.90;2.40;;;;;;;;;;5025994;28;20018;-85
2022/12/23 12:04:24;;;;;;;7.57;2.28;;;;;;;;;;5043207;28;20028;-75
2022/12/23 12:06:51;;;;;;;11.57;3.00;;;;;;;;;;5028735;28;20017;-79
2022/12/23 12:09:17;;;;;;;11.57;2.83;;;;;;;;;;5024508;28;20030;-77
2022/12/23 12:12:13;;;;;;;11.30;3.28;;;;;;;;;;5029042;28;20071;-81
2022/12/23 12:14:48;;;;;;;7.60;2.38;;;;;;;;;;5004101;28;20155;-81
2022/12/23 12:17:14;;;;;;;15.05;2.72;;;;;;;;;;5028131;28;20045;-74
2022/12/23 12:19:44;;;;;;;10.25;2.75;;;;;;;;;;5026094;28;20367;-78
2022/12/23 12:22:22;;;;;;;6.93;2.17;;;;;;;;;;5023600;28;20091;-82
2022/12/23 12:24:51;;;;;;;7.75;2.20;;;;;;;;;;5029093;28;20029;-86
2022/12/23 12:27:20;;;;;;;9.90;2.60;;;;;;;;;;5024305;28;20056;-82
2022/12/23 12:29:48;;;;;;;8.32;3.10;;;;;;;;;;5023602;28;20029;-79
2022/12/23 12:32:18;;;;;;;11.55;2.80;;;;;;;;;;5030424;28;20569;-82
2022/12/23 12:34:51;;;;;;;11.77;3.00;;;;;;;;;;5023054;28;20039;-74
2022/12/23 12:37:37;;;;;;;10.32;2.72;;;;;;;;;;5023366;28;20537;-79
2022/12/23 12:40:22;;;;;;;9.38;3.03;;;;;;;;;;5024167;28;20018;-83
2022/12/23 12:42:58;;;;;;;12.25;3.22;;;;;;;;;;4995271;28;20018;-80
2022/12/23 12:45:28;;;;;;;12.75;2.42;;;;;;;;;;5021597;28;20068;-81
2022/12/23 12:48:12;;;;;;;11.63;2.33;;;;;;;;;;5018211;28;20030;-81
2022/12/23 12:50:40;;;;;;;13.75;2.35;;;;;;;;;;4995238;28;20537;-77
2022/12/23 12:53:18;;;;;;;16.65;3.28;;;;;;;;;;5022014;28;20014;-80
2022/12/23 12:55:47;;;;;;;10.70;2.65;;;;;;;;;;5023129;28;20022;-81
2022/12/23 12:58:21;;;;;;;9.57;2.88;;;;;;;;;;5013340;28;20286;-82
2022/12/23 13:01:02;;;;;;;13.60;2.67;;;;;;;;;;5023471;28;20022;-79
2022/12/23 13:03:47;;;;;;;8.50;2.53;;;;;;;;;;5022913;28;20124;-82
2022/12/23 13:06:31;;;;;;;9.77;2.30;;;;;;;;;;5021776;28;20042;-74
2022/12/23 13:09:16;;;;;;;15.13;3.17;;;;;;;;;;5003716;28;20030;-79
2022/12/23 13:11:51;;;;;;;14.70;3.03;;;;;;;;;;5020274;28;20031;-77
2022/12/23 13:14:45;;;;;;;16.20;3.53;;;;;;;;;;5013731;28;20176;-82
2022/12/23 13:17:11;;;;;;;6.28;2.20;;;;;;;;;;5020791;28;20501;-73
2022/12/23 13:19:37;;;;;;;4.40;2.20;;;;;;;;;;5016661;28;20021;-76
2022/12/23 13:22:06;;;;;;;10.18;2.80;;;;;;;;;;5021137;28;20083;-79
2022/12/23 13:24:51;;;;;;;14.82;2.95;;;;;;;;;;5022146;28;20025;-80
2022/12/23 13:27:27;;;;;;;11.43;3.10;;;;;;;;;;5015564;28;20049;-77
2022/12/23 13:29:56;;;;;;;13.10;2.58;;;;;;;;;;5033594;28;20036;-74
2022/12/23 13:32:28;;;;;;;10.05;2.60;;;;;;;;;;5035788;28;20522;-72
2022/12/23 13:35:16;;;;;;;10.00;2.80;;;;;;;;;;5022528;28;20505;-74
2022/12/23 13:37:47;;;;;;;7.85;2.85;;;;;;;;;;5018472;28;20025;-76
2022/12/23 13:40:32;;;;;;;8.27;2.15;;;;;;;;;;5032606;28;20463;-82
2022/12/23 13:43:04;;;;;;;7.90;2.10;;;;;;;;;;5028881;28;20020;-87
2022/12/23 13:45:35;;;;;;;13.52;3.33;;;;;;;;;;5032755;28;20025;-85
2022/12/23 13:48:04;;;;;;;12.70;2.75;;;;;;;;;;5032675;28;20032;-84
2022/12/23 13:50:41;;;;;;;7.93;2.45;;;;;;;;;;5031701;28;20651;-88
2022/12/23 13:53:13;;;;;;;8.45;3.03;;;;;;;;;;5032182;28;20028;-88
2022/12/23 13:55:52;;;;;;;15.43;2.72;;;;;;;;;;5027175;28;20021;-83
2022/12/23 13:58:20;;;;;;;15.45;3.00;;;;;;;;;;5007313;28;20034;-79
2022/12/23 14:00:56;;;;;;;11.63;3.72;;;;;;;;;;5018955;28;20017;-85
2022/12/23 14:03:24;;;;;;;11.65;3.25;;;;;;;;;;5027807;28;20084;-79
2022/12/23 14:05:52;;;;;;;13.70;2.95;;;;;;;;;;5021892;28;20060;-80
2022/12/23 14:08:18;;;;;;;6.40;2.63;;;;;;;;;;5022808;28;20025;-88
2022/12/23 14:10:59;;;;;;;14.23;3.25;;;;;;;;;;5021754;28;20116;-85
2022/12/23 14:13:28;;;;;;;14.13;3.58;;;;;;;;;;5025463;28;20025;-82
2022/12/23 14:15:57;;;;;;;11.48;3.22;;;;;;;;;;5025808;28;20082;-85
2022/12/23 14:18:27;;;;;;;11.52;3.03;;;;;;;;;;5025563;28;20120;-79
2022/12/23 14:20:56;;;;;;;10.18;2.70;;;;;;;;;;5032499;28;20059;-85
2022/12/23 14:23:41;;;;;;;11.52;2.80;;;;;;;;;;5029784;28;20033;-83
2022/12/23 14:26:25;;;;;;;15.55;3.22;;;;;;;;;;5034754;28;20120;-84
2022/12/23 14:28:51;;;;;;;6.88;2.35;;;;;;;;;;5026902;28;20132;-87
2022/12/23 14:31:33;;;;;;;10.32;2.58;;;;;;;;;;5031763;28;20025;-86
2022/12/23 14:34:03;;;;;;;8.00;2.65;;;;;;;;;;5028675;28;20036;-85
2022/12/23 14:36:30;;;;;;;11.80;2.50;;;;;;;;;;5035291;28;20040;-87
2022/12/23 14:39:16;;;;;;;10.52;3.03;;;;;;;;;;5028353;28;20539;-89
2022/12/23 14:41:49;;;;;;;10.98;2.75;;;;;;;;;;5035989;28;20030;-90
2022/12/23 14:44:19;;;;;;;14.00;3.40;;;;;;;;;;5024474;28;20032;-89
2022/12/23 14:46:45;;;;;;;8.32;2.47;;;;;;;;;;5026959;28;20501;-88
2022/12/23 14:49:21;;;;;;;14.85;3.35;;;;;;;;;;5026343;28;20585;-91
2022/12/23 14:51:49;;;;;;;13.35;4.22;;;;;;;;;;5027748;28;20021;-84
2022/12/23 14:54:16;;;;;;;14.10;4.68;;;;;;;;;;5037208;28;20025;-89
2022/12/23 14:56:46;;;;;;;14.77;3.92;;;;;;;;;;5030804;28;20489;-88
2022/12/23 14:59:12;;;;;;;11.68;2.70;;;;;;;;;;5014925;28;20091;-90
2022/12/23 15:01:46;;;;;;;13.75;4.47;;;;;;;;;;5027020;28;20024;-86
2022/12/23 15:04:15;;;;;;;10.40;2.90;;;;;;;;;;5032980;28;20284;-86
2022/12/23 15:06:42;;;;;;;11.18;2.65;;;;;;;;;;5033480;28;20017;-90
2022/12/23 15:09:16;;;;;;;17.08;3.33;;;;;;;;;;5034066;28;20108;-83
2022/12/23 15:11:42;;;;;;;9.77;2.33;;;;;;;;;;5034730;28;20029;-80
2022/12/23 15:14:10;;;;;;;20.15;3.40;;;;;;;;;;5009203;28;20040;-88
2022/12/23 15:16:39;;;;;;;15.75;3.63;;;;;;;;;;5031029;28;20496;-88
2022/12/23 15:19:40;;;;;;;12.45;3.13;;;;;;;;;;5032728;28;20112;-76
2022/12/23 15:22:07;;;;;;;14.00;3.33;;;;;;;;;;4970378;28;20038;-87